Time;durP1;ratioP1;P1;durP2;ratioP2;P2;SDS_P1;SDS_P2;PMS_P1;PMS_P2;Temp;Humidity;BMP_temperature;BMP_pressure;BME280_temperature;BME280_humidity;BME280_pressure;Samples;Min_cycle;Max_cycle;Signal;HPM_P1;HPM_P2
2023/06/02 00:02:17;;;;;;;11.57;3.00;;;13.20;89.60;;;;;;6243627;23;20001;-71
2023/06/02 00:04:44;;;;;;;9.63;2.28;;;13.20;89.70;;;;;;6243670;23;20000;-71
2023/06/02 00:07:11;;;;;;;8.48;3.53;;;13.20;89.80;;;;;;6243809;23;20071;-71
2023/06/02 00:09:38;;;;;;;10.60;2.75;;;13.20;89.80;;;;;;6243719;23;20000;-71
2023/06/02 00:12:05;;;;;;;8.50;2.97;;;13.20;89.70;;;;;;6242834;23;20008;-71
2023/06/02 00:14:31;;;;;;;9.57;3.00;;;13.20;89.60;;;;;;6243052;23;20012;-71
2023/06/02 00:17:00;;;;;;;11.40;2.83;;;13.20;89.60;;;;;;6243847;23;20007;-71
2023/06/02 00:19:30;;;;;;;9.13;2.63;;;13.20;89.60;;;;;;6243210;23;20050;-70
2023/06/02 00:21:57;;;;;;;10.60;2.28;;;13.20;89.70;;;;;;6243787;23;20004;-71
2023/06/02 00:24:23;;;;;;;10.35;2.50;;;13.20;89.70;;;;;;6243425;23;20069;-71
2023/06/02 00:26:48;;;;;;;11.93;3.00;;;13.20;89.80;;;;;;6242347;23;20042;-71
2023/06/02 00:29:14;;;;;;;9.02;2.10;;;13.20;89.80;;;;;;6241256;23;20008;-70
2023/06/02 00:31:39;;;;;;;12.40;2.80;;;13.20;89.70;;;;;;6241087;23;19996;-71
2023/06/02 00:34:05;;;;;;;13.00;2.40;;;13.20;89.90;;;;;;6241352;23;20024;-71
2023/06/02 00:36:30;;;;;;;9.65;3.95;;;13.10;90.00;;;;;;6241059;23;20005;-71
2023/06/02 00:38:56;;;;;;;9.10;2.70;;;13.20;90.00;;;;;;6241305;23;20008;-71
2023/06/02 00:41:22;;;;;;;12.73;3.35;;;13.20;90.10;;;;;;6240641;23;20416;-70
2023/06/02 00:43:47;;;;;;;13.93;3.72;;;13.10;90.00;;;;;;6242021;23;20000;-71
2023/06/02 00:46:13;;;;;;;10.82;3.50;;;13.10;90.00;;;;;;6243142;23;19996;-71
2023/06/02 00:48:38;;;;;;;11.45;2.65;;;13.10;90.00;;;;;;6243311;23;20016;-70
2023/06/02 00:51:04;;;;;;;12.80;2.67;;;13.20;90.00;;;;;;6243365;23;20701;-71
2023/06/02 00:53:31;;;;;;;9.80;3.10;;;13.20;90.00;;;;;;6242871;23;20600;-71
2023/06/02 00:55:58;;;;;;;6.82;2.50;;;13.20;90.10;;;;;;6242872;23;20437;-71
2023/06/02 00:58:23;;;;;;;6.28;2.22;;;13.20;90.00;;;;;;6242807;23;20004;-70
2023/06/02 01:00:49;;;;;;;10.63;2.78;;;13.20;90.00;;;;;;6243369;23;20008;-71
2023/06/02 01:03:15;;;;;;;13.15;3.88;;;13.10;90.10;;;;;;6242898;23;20010;-71
2023/06/02 01:05:45;;;;;;;13.45;2.72;;;13.10;90.10;;;;;;6243290;23;20003;-70
2023/06/02 01:08:14;;;;;;;15.88;3.28;;;13.10;90.10;;;;;;6242519;23;20000;-71
2023/06/02 01:10:40;;;;;;;11.35;2.95;;;13.10;90.00;;;;;;6242277;23;20058;-71
2023/06/02 01:13:06;;;;;;;12.23;3.90;;;13.00;90.00;;;;;;6242937;23;19996;-71
2023/06/02 01:15:32;;;;;;;12.85;3.20;;;13.00;90.00;;;;;;6242871;23;20008;-71
2023/06/02 01:17:59;;;;;;;13.05;3.38;;;13.00;89.90;;;;;;6243234;23;20000;-70
2023/06/02 01:20:26;;;;;;;7.32;2.72;;;13.00;90.00;;;;;;6242732;23;20007;-71
2023/06/02 01:22:57;;;;;;;12.77;4.47;;;12.90;89.90;;;;;;6242984;23;20444;-71
2023/06/02 01:25:27;;;;;;;5.00;2.70;;;12.90;89.70;;;;;;6241934;23;20004;-70
2023/06/02 01:27:57;;;;;;;11.63;2.92;;;12.90;89.80;;;;;;6242766;23;20019;-71
2023/06/02 01:30:23;;;;;;;14.95;2.80;;;12.90;89.90;;;;;;6242724;23;20011;-71
2023/06/02 01:33:04;;;;;;;13.30;2.92;;;12.90;89.80;;;;;;6243044;23;19992;-71
2023/06/02 01:35:33;;;;;;;11.88;2.63;;;12.90;89.70;;;;;;6242683;23;20057;-70
2023/06/02 01:38:00;;;;;;;7.93;2.28;;;12.80;89.50;;;;;;6242910;23;20000;-70
2023/06/02 01:40:27;;;;;;;8.57;2.20;;;12.70;89.50;;;;;;6241747;23;20000;-70
2023/06/02 01:42:54;;;;;;;10.57;2.70;;;12.70;89.20;;;;;;6242812;23;20051;-70
2023/06/02 01:45:22;;;;;;;6.05;2.25;;;12.60;89.10;;;;;;6242521;23;20007;-71
2023/06/02 01:47:47;;;;;;;10.68;2.72;;;12.60;89.20;;;;;;6215978;23;20012;-70
2023/06/02 01:50:13;;;;;;;8.10;2.88;;;12.60;89.30;;;;;;6242015;23;19996;-70
2023/06/02 01:52:38;;;;;;;10.30;3.00;;;12.50;89.40;;;;;;6242806;23;20391;-71
2023/06/02 01:55:05;;;;;;;10.63;3.50;;;12.50;89.50;;;;;;6241961;23;20083;-71
2023/06/02 01:57:32;;;;;;;13.70;2.88;;;12.50;89.60;;;;;;6242932;23;20035;-70
2023/06/02 01:59:58;;;;;;;9.55;3.05;;;12.50;89.70;;;;;;6242702;23;20000;-70
2023/06/02 02:02:23;;;;;;;7.93;2.92;;;12.50;89.90;;;;;;6242376;23;20007;-71
2023/06/02 02:04:50;;;;;;;12.55;2.97;;;12.50;90.00;;;;;;6242707;23;20004;-70
2023/06/02 02:07:19;;;;;;;13.90;3.35;;;12.40;90.10;;;;;;6242435;23;20054;-71
2023/06/02 02:09:46;;;;;;;11.52;3.05;;;12.40;90.10;;;;;;6242155;23;20095;-70
2023/06/02 02:12:11;;;;;;;9.30;2.78;;;12.40;90.20;;;;;;6242247;23;20004;-70
2023/06/02 02:14:37;;;;;;;8.75;2.90;;;12.40;90.30;;;;;;6242523;23;20028;-70
2023/06/02 02:17:02;;;;;;;11.75;3.03;;;12.30;90.40;;;;;;6242457;23;20050;-70
2023/06/02 02:19:31;;;;;;;8.40;3.25;;;12.30;90.40;;;;;;6242441;23;20004;-70
2023/06/02 02:21:57;;;;;;;11.25;3.15;;;12.30;90.40;;;;;;6242571;23;20003;-71
2023/06/02 02:24:23;;;;;;;10.13;3.45;;;12.30;90.40;;;;;;6241817;23;20338;-71
2023/06/02 02:26:48;;;;;;;14.90;3.25;;;12.40;90.50;;;;;;6215418;23;20016;-71
2023/06/02 02:29:14;;;;;;;11.23;2.95;;;12.30;90.50;;;;;;6241947;23;20011;-70
2023/06/02 02:31:40;;;;;;;11.63;2.88;;;12.30;90.50;;;;;;6242518;23;20083;-70
2023/06/02 02:34:06;;;;;;;6.53;2.60;;;12.30;90.50;;;;;;6215681;23;19997;-70
2023/06/02 02:36:32;;;;;;;10.98;3.13;;;12.30;90.50;;;;;;6242265;23;19996;-70
2023/06/02 02:38:57;;;;;;;10.68;3.30;;;12.30;90.40;;;;;;6241915;23;20100;-71
2023/06/02 02:41:23;;;;;;;8.70;3.13;;;12.20;90.40;;;;;;6241959;23;20009;-70
2023/06/02 02:43:49;;;;;;;12.80;2.40;;;12.30;90.50;;;;;;6242441;23;19992;-70
2023/06/02 02:46:15;;;;;;;8.35;2.45;;;12.30;90.80;;;;;;6242047;23;20445;-71
2023/06/02 02:48:41;;;;;;;8.75;1.92;;;12.30;90.60;;;;;;6242364;23;20000;-71
2023/06/02 02:51:06;;;;;;;8.68;2.72;;;12.30;90.50;;;;;;6241823;23;19996;-71
2023/06/02 02:53:32;;;;;;;12.45;3.22;;;12.30;90.60;;;;;;6215201;23;20043;-71
2023/06/02 02:55:58;;;;;;;10.00;2.17;;;12.30;90.60;;;;;;6242545;23;20001;-70
2023/06/02 02:58:24;;;;;;;10.15;2.03;;;12.30;90.60;;;;;;6241925;23;20461;-71
2023/06/02 03:00:52;;;;;;;10.23;2.25;;;12.30;90.60;;;;;;6242556;23;20007;-70
2023/06/02 03:03:18;;;;;;;6.78;1.92;;;12.30;90.60;;;;;;6243893;23;20489;-71
2023/06/02 03:05:45;;;;;;;9.55;2.83;;;12.30;90.70;;;;;;6243955;23;20031;-71
2023/06/02 03:08:12;;;;;;;11.60;2.42;;;12.20;90.60;;;;;;6217214;23;20363;-71
2023/06/02 03:10:38;;;;;;;6.78;2.13;;;12.20;90.60;;;;;;6244464;23;20005;-71
2023/06/02 03:13:04;;;;;;;10.68;2.40;;;12.20;90.70;;;;;;6244265;23;20008;-70
2023/06/02 03:15:30;;;;;;;9.02;2.13;;;12.20;90.80;;;;;;6244387;23;20052;-71
2023/06/02 03:17:57;;;;;;;9.20;2.72;;;12.20;90.80;;;;;;6244311;23;20418;-71
2023/06/02 03:20:25;;;;;;;5.78;1.98;;;12.20;90.90;;;;;;6243345;23;20438;-70
2023/06/02 03:22:51;;;;;;;12.98;3.00;;;12.20;91.00;;;;;;6244200;23;20000;-70
2023/06/02 03:25:20;;;;;;;10.60;2.17;;;12.20;91.00;;;;;;6243883;23;20068;-70
2023/06/02 03:27:46;;;;;;;9.20;2.28;;;12.10;91.00;;;;;;6244060;23;20441;-70
2023/06/02 03:30:12;;;;;;;7.88;2.65;;;12.20;91.10;;;;;;6244001;23;20366;-70
2023/06/02 03:32:38;;;;;;;7.80;2.25;;;12.20;91.10;;;;;;6243964;23;20119;-70
2023/06/02 03:35:03;;;;;;;13.85;3.42;;;12.10;91.00;;;;;;6243712;23;20023;-71
2023/06/02 03:37:29;;;;;;;9.18;2.28;;;12.20;91.10;;;;;;6243992;23;20022;-70
2023/06/02 03:39:55;;;;;;;12.43;2.88;;;12.10;91.10;;;;;;6244133;23;20000;-70
2023/06/02 03:42:20;;;;;;;6.50;1.75;;;12.10;91.10;;;;;;6243606;23;20004;-70
2023/06/02 03:44:46;;;;;;;7.25;2.42;;;12.20;91.10;;;;;;6243997;23;20441;-71
2023/06/02 03:47:11;;;;;;;6.38;2.08;;;12.10;91.20;;;;;;6243564;23;20175;-71
2023/06/02 03:49:37;;;;;;;6.53;3.00;;;12.10;91.30;;;;;;6243590;23;20000;-70
2023/06/02 03:52:03;;;;;;;10.70;2.72;;;12.10;91.30;;;;;;6243970;23;20007;-71
2023/06/02 03:54:29;;;;;;;8.20;2.28;;;12.10;91.30;;;;;;6243751;23;20405;-71
2023/06/02 03:56:54;;;;;;;9.60;1.95;;;12.00;91.20;;;;;;6243878;23;20030;-71
2023/06/02 03:59:20;;;;;;;6.25;2.30;;;12.10;91.20;;;;;;6243522;23;20043;-71
2023/06/02 04:01:45;;;;;;;6.93;2.72;;;12.10;91.20;;;;;;6243799;23;19996;-71
2023/06/02 04:04:12;;;;;;;6.07;1.83;;;12.20;91.20;;;;;;6243075;23;20082;-71
2023/06/02 04:06:41;;;;;;;11.60;2.75;;;12.20;91.20;;;;;;6243738;23;20046;-70
2023/06/02 04:09:10;;;;;;;9.32;2.10;;;12.20;91.20;;;;;;6243664;23;20011;-71
2023/06/02 04:11:35;;;;;;;10.82;2.45;;;12.20;91.20;;;;;;6243752;23;20004;-71
2023/06/02 04:14:03;;;;;;;15.57;3.10;;;12.20;91.20;;;;;;6241730;23;20448;-71
2023/06/02 04:16:28;;;;;;;7.30;1.88;;;12.20;91.20;;;;;;6241417;23;20000;-70
2023/06/02 04:18:54;;;;;;;6.55;2.17;;;12.20;91.10;;;;;;6240226;23;20081;-70
2023/06/02 04:21:19;;;;;;;8.68;2.47;;;12.20;91.10;;;;;;6240957;23;20079;-70
2023/06/02 04:23:45;;;;;;;12.23;2.22;;;12.20;91.10;;;;;;6241603;23;20008;-71
2023/06/02 04:26:10;;;;;;;8.07;2.67;;;12.10;91.10;;;;;;6241449;23;20016;-70
2023/06/02 04:28:36;;;;;;;11.18;2.30;;;12.10;91.10;;;;;;6243093;23;20009;-71
2023/06/02 04:31:02;;;;;;;8.45;2.22;;;12.10;91.10;;;;;;6243190;23;20004;-71
2023/06/02 04:33:27;;;;;;;9.65;2.15;;;12.10;91.00;;;;;;6242968;23;20304;-71
2023/06/02 04:35:53;;;;;;;7.97;1.77;;;12.20;91.00;;;;;;6243538;23;20027;-71
2023/06/02 04:38:19;;;;;;;8.48;2.20;;;12.20;90.90;;;;;;6243235;23;20004;-71
2023/06/02 04:40:45;;;;;;;14.50;2.53;;;12.20;90.90;;;;;;6243536;23;20004;-71
2023/06/02 04:43:11;;;;;;;12.82;2.05;;;12.20;90.90;;;;;;6243437;23;20009;-71
2023/06/02 04:45:43;;;;;;;10.95;2.10;;;12.20;90.90;;;;;;6243401;23;20130;-71
2023/06/02 04:48:11;;;;;;;13.20;2.20;;;12.20;90.80;;;;;;6215942;23;20001;-71
2023/06/02 04:50:38;;;;;;;10.55;2.25;;;12.20;90.70;;;;;;6243348;23;20326;-71
2023/06/02 04:53:03;;;;;;;13.43;2.83;;;12.20;90.60;;;;;;6243178;23;20027;-71
2023/06/02 04:55:29;;;;;;;13.38;2.40;;;12.20;90.70;;;;;;6243062;23;20414;-71
2023/06/02 04:57:55;;;;;;;7.25;1.98;;;12.20;90.70;;;;;;6243359;23;20000;-71
2023/06/02 05:00:20;;;;;;;7.80;2.10;;;12.20;90.70;;;;;;6242860;23;20283;-71
2023/06/02 05:02:46;;;;;;;6.75;1.88;;;12.30;90.60;;;;;;6242719;23;20368;-71
2023/06/02 05:05:12;;;;;;;5.05;2.03;;;12.20;90.50;;;;;;6241752;23;20216;-71
2023/06/02 05:07:37;;;;;;;8.32;2.20;;;12.20;90.40;;;;;;6241695;23;20001;-71
2023/06/02 05:10:04;;;;;;;10.32;2.28;;;12.20;90.40;;;;;;6242269;23;20695;-71
2023/06/02 05:12:29;;;;;;;11.55;2.38;;;12.30;90.40;;;;;;6242801;23;20004;-71
2023/06/02 05:14:55;;;;;;;9.65;2.17;;;12.30;90.40;;;;;;6216178;23;20012;-71
2023/06/02 05:17:23;;;;;;;9.98;1.80;;;12.30;90.30;;;;;;6242282;23;20000;-72
2023/06/02 05:19:49;;;;;;;10.82;2.72;;;12.30;90.40;;;;;;6243131;23;20007;-71
2023/06/02 05:22:14;;;;;;;9.38;2.78;;;12.50;90.40;;;;;;6242744;23;20080;-71
2023/06/02 05:24:40;;;;;;;10.35;2.13;;;12.50;90.40;;;;;;6242997;23;20379;-71
2023/06/02 05:27:07;;;;;;;12.27;2.33;;;12.60;90.30;;;;;;6242861;23;20020;-71
2023/06/02 05:29:32;;;;;;;13.32;2.15;;;12.60;90.00;;;;;;6242675;23;20425;-71
2023/06/02 05:31:58;;;;;;;8.90;2.50;;;12.60;90.00;;;;;;6242769;23;20004;-72
2023/06/02 05:34:23;;;;;;;7.72;2.10;;;12.70;89.80;;;;;;6242651;23;20008;-71
2023/06/02 05:36:49;;;;;;;17.80;2.78;;;12.70;89.60;;;;;;6242955;23;20004;-71
2023/06/02 05:39:15;;;;;;;14.65;2.05;;;12.60;89.40;;;;;;6242341;23;20015;-72
2023/06/02 05:41:40;;;;;;;8.27;2.05;;;12.60;89.40;;;;;;6242772;23;20071;-72
2023/06/02 05:44:06;;;;;;;8.48;2.17;;;12.70;89.70;;;;;;6242594;23;20075;-72
2023/06/02 05:46:31;;;;;;;14.63;2.53;;;12.70;89.60;;;;;;6242118;23;20528;-72
2023/06/02 05:48:57;;;;;;;10.18;2.13;;;12.80;89.60;;;;;;6242933;23;20011;-72
2023/06/02 05:51:23;;;;;;;11.05;2.03;;;12.90;90.10;;;;;;6242646;23;20334;-72
2023/06/02 05:53:51;;;;;;;7.57;1.70;;;13.00;89.60;;;;;;6242802;23;20005;-72
2023/06/02 05:56:17;;;;;;;11.43;2.60;;;13.00;89.40;;;;;;6242513;23;20080;-72
2023/06/02 05:58:42;;;;;;;12.38;1.85;;;13.00;89.10;;;;;;6242709;23;20444;-72
2023/06/02 06:01:09;;;;;;;13.40;2.03;;;13.10;89.60;;;;;;6242187;23;20000;-71
2023/06/02 06:03:35;;;;;;;10.48;2.38;;;13.10;88.70;;;;;;6242483;23;20329;-72
2023/06/02 06:06:01;;;;;;;11.10;1.60;;;13.10;88.60;;;;;;6242850;23;20007;-72
2023/06/02 06:08:27;;;;;;;9.13;1.90;;;13.10;88.50;;;;;;6242281;23;20510;-73
2023/06/02 06:10:52;;;;;;;7.93;2.65;;;13.10;88.50;;;;;;6242710;23;20032;-71
2023/06/02 06:13:18;;;;;;;11.13;2.03;;;13.20;88.40;;;;;;6242192;23;20126;-71
2023/06/02 06:15:44;;;;;;;12.88;3.58;;;13.20;88.20;;;;;;6242080;23;20012;-72
2023/06/02 06:18:09;;;;;;;9.43;2.00;;;13.20;88.20;;;;;;6242492;23;20000;-72
2023/06/02 06:20:35;;;;;;;9.82;1.90;;;13.20;88.30;;;;;;6215444;23;20440;-71
2023/06/02 06:23:00;;;;;;;9.48;2.20;;;13.30;88.30;;;;;;6242573;23;20007;-72
2023/06/02 06:25:26;;;;;;;15.52;2.13;;;13.50;88.30;;;;;;6242068;23;20050;-72
2023/06/02 06:27:51;;;;;;;15.35;2.38;;;13.50;88.20;;;;;;6242334;23;20020;-72
2023/06/02 06:30:19;;;;;;;7.45;1.70;;;13.50;88.00;;;;;;6241692;23;20023;-72
2023/06/02 06:32:45;;;;;;;8.02;1.70;;;13.60;87.60;;;;;;6242868;23;20011;-72
2023/06/02 06:35:11;;;;;;;11.13;1.70;;;13.60;87.20;;;;;;6242315;23;19996;-72
2023/06/02 06:37:36;;;;;;;16.00;2.45;;;13.60;87.00;;;;;;6244968;23;20008;-72
2023/06/02 06:40:02;;;;;;;11.93;2.60;;;13.60;86.90;;;;;;6245819;23;20015;-72
2023/06/02 06:42:28;;;;;;;17.70;2.60;;;13.60;87.10;;;;;;6218722;23;20041;-71
2023/06/02 06:44:53;;;;;;;7.95;1.77;;;13.70;87.10;;;;;;6245279;23;20130;-72
2023/06/02 06:47:19;;;;;;;11.43;1.83;;;13.80;86.90;;;;;;6245426;23;19997;-72
2023/06/02 06:49:45;;;;;;;11.13;2.83;;;13.90;86.70;;;;;;6245989;23;20440;-72
2023/06/02 06:52:10;;;;;;;8.85;1.95;;;14.00;86.50;;;;;;6245493;23;20426;-72
2023/06/02 06:54:36;;;;;;;15.18;2.40;;;14.00;86.10;;;;;;6245802;23;20004;-72
2023/06/02 06:57:01;;;;;;;14.98;2.55;;;14.00;86.30;;;;;;6245748;23;20050;-72
2023/06/02 06:59:27;;;;;;;6.95;1.90;;;14.00;86.40;;;;;;6244175;23;20004;-72
2023/06/02 07:01:52;;;;;;;11.90;2.35;;;14.10;86.60;;;;;;6245678;23;20310;-72
2023/06/02 07:04:18;;;;;;;9.15;3.03;;;14.20;86.80;;;;;;6245506;23;19996;-72
2023/06/02 07:06:44;;;;;;;7.68;2.00;;;14.20;86.90;;;;;;6245729;23;20011;-71
2023/06/02 07:09:11;;;;;;;6.32;2.15;;;14.30;86.90;;;;;;6245631;23;20126;-72
2023/06/02 07:11:36;;;;;;;13.82;2.47;;;14.30;87.50;;;;;;6245185;23;20004;-75
2023/06/02 07:14:02;;;;;;;8.50;1.88;;;14.30;86.90;;;;;;6243835;23;20007;-75
2023/06/02 07:16:28;;;;;;;7.55;2.05;;;14.30;86.80;;;;;;6216883;23;20004;-76
2023/06/02 07:18:53;;;;;;;9.13;2.28;;;14.30;86.70;;;;;;6243405;23;20005;-76
2023/06/02 07:21:19;;;;;;;8.55;2.15;;;14.30;86.80;;;;;;6243563;23;20007;-76
2023/06/02 07:23:44;;;;;;;11.27;2.20;;;14.30;86.90;;;;;;6243990;23;20088;-76
2023/06/02 07:26:10;;;;;;;11.52;2.03;;;14.30;87.00;;;;;;6216048;23;20051;-75
2023/06/02 07:28:37;;;;;;;8.65;2.00;;;14.20;87.50;;;;;;6216117;23;20022;-76
2023/06/02 07:31:03;;;;;;;13.60;3.08;;;14.20;87.20;;;;;;6216280;23;20014;-76
2023/06/02 07:33:28;;;;;;;8.88;2.08;;;14.30;87.40;;;;;;6243122;23;20004;-74
2023/06/02 07:35:54;;;;;;;11.35;2.28;;;14.30;87.30;;;;;;6243303;23;20004;-74
2023/06/02 07:38:19;;;;;;;12.00;3.13;;;14.30;87.40;;;;;;6216543;23;20011;-73
2023/06/02 07:40:45;;;;;;;15.75;3.13;;;14.30;87.50;;;;;;6243739;23;20015;-74
2023/06/02 07:43:11;;;;;;;10.07;3.05;;;14.30;87.60;;;;;;6215238;23;20004;-75
2023/06/02 07:45:36;;;;;;;9.23;3.05;;;14.40;88.00;;;;;;6243700;23;20142;-74
2023/06/02 07:48:02;;;;;;;8.73;2.28;;;14.50;88.00;;;;;;6215456;23;20004;-75
2023/06/02 07:50:28;;;;;;;15.82;2.83;;;14.60;88.20;;;;;;6241833;23;20012;-74
2023/06/02 07:52:54;;;;;;;15.05;3.42;;;14.60;87.60;;;;;;6241473;23;20062;-74
2023/06/02 07:55:20;;;;;;;10.10;1.88;;;14.70;87.50;;;;;;6241691;23;20023;-73
2023/06/02 07:57:46;;;;;;;11.73;2.60;;;14.70;87.30;;;;;;6241796;23;20422;-74
2023/06/02 08:00:17;;;;;;;12.90;3.15;;;14.70;87.30;;;;;;6214618;23;20019;-75
2023/06/02 08:02:44;;;;;;;11.13;2.45;;;14.70;87.20;;;;;;6214858;23;20057;-74
2023/06/02 08:05:10;;;;;;;15.77;2.92;;;14.70;87.40;;;;;;6241213;23;20000;-73
2023/06/02 08:07:35;;;;;;;7.82;2.33;;;14.80;87.60;;;;;;6242093;23;20011;-73
2023/06/02 08:10:01;;;;;;;13.10;2.78;;;14.90;87.50;;;;;;6242643;23;20023;-73
2023/06/02 08:12:28;;;;;;;13.45;2.20;;;15.00;87.20;;;;;;6216333;23;20095;-72
2023/06/02 08:14:53;;;;;;;13.32;2.60;;;15.10;87.30;;;;;;6215501;23;20451;-74
2023/06/02 08:17:19;;;;;;;16.90;2.58;;;15.20;87.30;;;;;;6215603;23;20027;-73
2023/06/02 08:19:45;;;;;;;9.50;2.15;;;15.20;87.10;;;;;;6242584;23;20012;-73
2023/06/02 08:22:11;;;;;;;14.45;2.95;;;15.30;86.60;;;;;;6215214;23;20336;-74
2023/06/02 08:24:36;;;;;;;11.30;2.60;;;15.20;86.70;;;;;;6242290;23;20000;-74
2023/06/02 08:27:03;;;;;;;7.45;2.20;;;15.30;87.30;;;;;;6215215;23;20105;-73
2023/06/02 08:29:30;;;;;;;18.42;3.15;;;15.40;87.40;;;;;;6242893;23;20004;-73
2023/06/02 08:31:56;;;;;;;8.48;2.03;;;15.40;86.80;;;;;;6214980;23;20004;-74
2023/06/02 08:34:23;;;;;;;11.88;3.22;;;15.40;86.50;;;;;;6241835;23;20363;-74
2023/06/02 08:37:00;;;;;;;7.05;2.17;;;15.40;87.10;;;;;;6215368;23;20000;-73
2023/06/02 08:39:29;;;;;;;13.68;2.38;;;15.30;86.70;;;;;;6241244;23;20004;-73
2023/06/02 08:41:55;;;;;;;14.18;2.88;;;15.40;86.80;;;;;;6241828;23;20177;-74
2023/06/02 08:44:21;;;;;;;9.65;2.70;;;15.40;86.90;;;;;;6241935;23;20412;-74
2023/06/02 08:46:48;;;;;;;9.07;2.40;;;15.60;86.90;;;;;;6242062;23;20194;-73
2023/06/02 08:49:18;;;;;;;14.65;2.63;;;15.60;86.50;;;;;;6241669;23;20070;-74
2023/06/02 08:51:46;;;;;;;18.25;2.47;;;15.80;86.40;;;;;;6242314;23;20001;-74
2023/06/02 08:54:12;;;;;;;9.65;3.22;;;16.00;86.40;;;;;;6213853;23;20358;-74
2023/06/02 08:56:40;;;;;;;13.95;2.72;;;16.10;86.10;;;;;;6242229;23;20371;-74
2023/06/02 08:59:05;;;;;;;8.18;2.33;;;16.20;85.90;;;;;;6241410;23;20053;-74
2023/06/02 09:01:31;;;;;;;9.70;3.00;;;16.20;85.60;;;;;;6214734;23;20087;-76
2023/06/02 09:03:57;;;;;;;13.35;2.67;;;16.20;85.50;;;;;;6214925;23;20046;-72
2023/06/02 09:06:26;;;;;;;12.38;3.13;;;16.30;85.60;;;;;;6241700;23;20008;-73
2023/06/02 09:09:00;;;;;;;14.65;3.08;;;16.30;85.40;;;;;;6241048;23;20000;-72
2023/06/02 09:11:26;;;;;;;;;;;16.40;85.30;;;;;;6241115;23;20007;-73
2023/06/02 09:13:52;;;;;;;9.32;2.58;;;16.30;85.10;;;;;;6214330;23;19899;-74
2023/06/02 09:16:20;;;;;;;8.60;2.40;;;16.40;85.10;;;;;;6214233;23;20008;-74
2023/06/02 09:18:59;;;;;;;13.57;3.03;;;16.30;85.00;;;;;;6241295;23;20083;-74
2023/06/02 09:21:27;;;;;;;12.00;3.22;;;16.30;85.20;;;;;;6241262;23;20004;-75
2023/06/02 09:23:54;;;;;;;13.60;3.28;;;16.30;85.10;;;;;;6213925;23;20001;-75
2023/06/02 09:26:28;;;;;;;13.43;2.35;;;16.30;85.40;;;;;;6240044;23;20326;-74
2023/06/02 09:29:08;;;;;;;11.73;2.97;;;16.50;85.30;;;;;;6241069;23;20004;-74
2023/06/02 09:31:53;;;;;;;11.02;2.88;;;16.50;84.80;;;;;;6241179;23;20000;-73
2023/06/02 09:34:33;;;;;;;11.80;3.58;;;16.40;84.60;;;;;;6240439;23;20008;-74
2023/06/02 09:37:10;;;;;;;9.50;3.00;;;16.60;84.90;;;;;;6241018;23;20074;-74
2023/06/02 09:39:38;;;;;;;7.30;2.97;;;16.60;84.90;;;;;;6241835;23;20380;-73
2023/06/02 09:42:06;;;;;;;11.32;3.63;;;16.70;84.60;;;;;;6214440;23;20007;-74
2023/06/02 09:44:32;;;;;;;12.50;2.88;;;16.70;84.20;;;;;;6241448;23;19997;-74
2023/06/02 09:46:59;;;;;;;13.18;2.83;;;16.70;84.30;;;;;;6241403;23;20000;-74
2023/06/02 09:49:25;;;;;;;8.70;2.63;;;16.80;84.40;;;;;;6240984;23;20007;-74
2023/06/02 09:51:50;;;;;;;11.98;2.75;;;17.10;84.60;;;;;;6214164;23;20008;-74
2023/06/02 09:54:16;;;;;;;8.07;3.13;;;17.30;84.40;;;;;;6239300;23;20012;-74
2023/06/02 09:56:43;;;;;;;6.13;3.05;;;17.40;84.20;;;;;;6241572;23;20066;-74
2023/06/02 09:59:08;;;;;;;10.57;3.55;;;17.50;83.60;;;;;;6214085;23;20008;-74
2023/06/02 10:01:35;;;;;;;8.35;3.00;;;17.60;83.00;;;;;;6240994;23;20062;-74
2023/06/02 10:04:02;;;;;;;5.85;2.50;;;17.50;82.60;;;;;;6240414;23;20000;-73
2023/06/02 10:07:06;;;;;;;7.53;2.80;;;17.40;82.30;;;;;;6213887;23;20008;-74
2023/06/02 10:09:50;;;;;;;10.68;3.47;;;17.50;82.30;;;;;;6214232;23;20131;-74
2023/06/02 10:12:37;;;;;;;11.13;3.97;;;17.50;82.70;;;;;;6213442;23;20015;-74
2023/06/02 10:15:26;;;;;;;9.98;3.80;;;17.60;82.70;;;;;;6240866;23;20004;-74
2023/06/02 10:18:16;;;;;;;12.75;4.03;;;17.70;82.60;;;;;;6213351;23;20342;-74
2023/06/02 10:21:12;;;;;;;8.23;3.47;;;17.80;81.90;;;;;;6212336;23;20008;-74
2023/06/02 10:23:48;;;;;;;13.07;3.53;;;17.90;82.10;;;;;;6241215;23;20418;-74
2023/06/02 10:26:17;;;;;;;9.88;3.60;;;18.10;81.70;;;;;;6240501;23;20008;-74
2023/06/02 10:28:43;;;;;;;10.07;3.50;;;18.10;81.90;;;;;;6238868;23;20004;-74
2023/06/02 10:31:11;;;;;;;9.18;3.97;;;18.20;81.70;;;;;;6213660;23;20031;-74
2023/06/02 10:33:49;;;;;;;9.73;3.50;;;18.30;81.60;;;;;;6241033;23;20004;-74
2023/06/02 10:36:20;;;;;;;11.70;3.85;;;18.30;81.10;;;;;;6240831;23;20133;-74
2023/06/02 10:38:46;;;;;;;11.82;3.65;;;18.30;81.20;;;;;;6241426;23;20372;-74
2023/06/02 10:41:14;;;;;;;10.52;3.80;;;18.40;81.40;;;;;;6213668;23;20005;-74
2023/06/02 10:44:18;;;;;;;9.85;3.38;;;18.40;80.90;;;;;;6241351;23;20010;-74
2023/06/02 10:46:44;;;;;;;11.40;3.92;;;18.50;80.90;;;;;;6241068;23;20000;-74
2023/06/02 10:49:57;;;;;;;12.35;3.35;;;18.60;80.90;;;;;;6214140;23;20010;-74
2023/06/02 10:52:47;;;;;;;8.65;3.50;;;18.70;80.70;;;;;;6236135;23;20095;-75
2023/06/02 10:55:13;;;;;;;12.90;4.22;;;18.70;80.90;;;;;;6219848;23;20004;-74
2023/06/02 10:57:52;;;;;;;15.85;3.78;;;18.70;80.10;;;;;;6241232;23;20001;-74
2023/06/02 11:00:36;;;;;;;13.07;4.70;;;18.70;80.20;;;;;;6240186;23;20008;-74
2023/06/02 11:03:28;;;;;;;10.98;4.32;;;18.90;80.10;;;;;;6240711;23;19996;-74
2023/06/02 11:06:15;;;;;;;11.25;4.43;;;19.10;79.70;;;;;;6213727;23;20049;-74
2023/06/02 11:08:41;;;;;;;11.80;4.15;;;19.20;79.10;;;;;;6241382;23;19996;-74
2023/06/02 11:11:07;;;;;;;10.20;4.10;;;19.10;79.20;;;;;;6213102;23;20007;-74
2023/06/02 11:13:56;;;;;;;8.60;3.63;;;19.30;79.10;;;;;;6213627;23;20009;-75
2023/06/02 11:16:22;;;;;;;9.80;4.32;;;19.30;78.90;;;;;;6240897;23;20485;-74
2023/06/02 11:18:47;;;;;;;9.75;4.47;;;19.30;79.10;;;;;;6213714;23;20057;-74
2023/06/02 11:21:21;;;;;;;13.45;4.53;;;19.40;78.80;;;;;;6213672;23;20000;-75
2023/06/02 11:23:46;;;;;;;12.80;3.40;;;19.30;78.30;;;;;;6242413;23;20066;-74
2023/06/02 11:26:17;;;;;;;9.18;3.85;;;19.40;79.00;;;;;;6242129;23;20337;-74
2023/06/02 11:28:42;;;;;;;10.50;3.00;;;19.50;79.00;;;;;;6244152;23;20085;-73
2023/06/02 11:31:14;;;;;;;12.88;4.93;;;19.70;78.90;;;;;;6243466;23;20004;-74
2023/06/02 11:33:41;;;;;;;10.50;3.17;;;19.70;77.40;;;;;;6243041;23;20007;-73
2023/06/02 11:36:08;;;;;;;17.05;4.50;;;19.70;77.70;;;;;;6242618;23;20000;-74
2023/06/02 11:38:35;;;;;;;13.52;3.58;;;19.70;78.00;;;;;;6242459;23;20012;-73
2023/06/02 11:41:12;;;;;;;11.43;3.50;;;19.60;78.50;;;;;;6242651;23;19996;-74
2023/06/02 11:43:39;;;;;;;11.38;3.65;;;19.70;78.40;;;;;;6242879;23;19996;-73
2023/06/02 11:46:10;;;;;;;11.93;3.92;;;19.60;78.00;;;;;;6244144;23;20448;-72
2023/06/02 11:48:38;;;;;;;11.38;5.00;;;19.60;78.50;;;;;;6244066;23;19997;-73
2023/06/02 11:51:15;;;;;;;11.50;4.03;;;19.60;78.50;;;;;;6243863;23;20418;-74
2023/06/02 11:53:45;;;;;;;10.20;3.63;;;19.70;78.50;;;;;;6243156;23;20032;-74
2023/06/02 11:56:12;;;;;;;10.20;3.80;;;19.80;78.20;;;;;;6242351;23;19996;-74
2023/06/02 11:58:42;;;;;;;14.65;4.55;;;19.90;78.00;;;;;;6242758;23;20480;-74
2023/06/02 12:01:14;;;;;;;12.55;4.25;;;19.90;77.40;;;;;;6215287;23;20004;-73
2023/06/02 12:03:57;;;;;;;13.57;4.93;;;20.00;77.50;;;;;;6216062;23;20085;-74
2023/06/02 12:06:23;;;;;;;8.10;3.77;;;20.00;77.70;;;;;;6242602;23;20149;-74
2023/06/02 12:08:48;;;;;;;10.55;4.22;;;20.10;78.00;;;;;;6215948;23;20438;-73
2023/06/02 12:11:18;;;;;;;13.93;3.50;;;20.10;77.40;;;;;;6241914;23;20000;-73
2023/06/02 12:13:58;;;;;;;9.25;3.75;;;20.10;77.80;;;;;;6243033;23;20027;-73
2023/06/02 12:16:26;;;;;;;11.18;4.20;;;20.10;77.50;;;;;;6242391;23;20000;-74
2023/06/02 12:18:54;;;;;;;15.27;4.35;;;20.00;77.80;;;;;;6215141;23;20062;-74
2023/06/02 12:21:29;;;;;;;11.88;4.25;;;20.00;78.10;;;;;;6241759;23;20071;-74
2023/06/02 12:23:57;;;;;;;12.35;4.10;;;20.10;77.80;;;;;;6242689;23;20011;-73
2023/06/02 12:26:26;;;;;;;10.95;4.63;;;20.10;77.80;;;;;;6241944;23;20501;-73
2023/06/02 12:28:52;;;;;;;10.90;3.83;;;20.10;77.70;;;;;;6242492;23;20054;-73
2023/06/02 12:31:18;;;;;;;11.38;4.35;;;20.20;78.00;;;;;;6241374;23;20079;-74
2023/06/02 12:33:45;;;;;;;10.52;4.20;;;20.20;77.90;;;;;;6242056;23;20012;-74
2023/06/02 12:36:12;;;;;;;11.32;4.47;;;20.20;77.80;;;;;;6241044;23;20077;-74
2023/06/02 12:38:40;;;;;;;12.13;4.28;;;20.40;77.50;;;;;;6242118;23;20046;-73
2023/06/02 12:41:10;;;;;;;9.30;4.30;;;20.50;77.10;;;;;;6239893;23;20000;-73
2023/06/02 12:43:38;;;;;;;11.05;4.55;;;20.60;77.60;;;;;;6241870;23;20447;-76
2023/06/02 12:46:03;;;;;;;9.40;4.05;;;20.80;77.50;;;;;;6241078;23;20061;-74